createdAt,value
2018-09-19T00:00:57.590Z,17.57
2018-09-19T00:02:06.254Z,17.68
2018-09-19T00:03:15.420Z,17.56
2018-09-19T00:04:24.083Z,17.53
2018-09-19T00:05:33.249Z,17.53
2018-09-19T00:06:42.483Z,17.57
2018-09-19T00:07:51.396Z,17.5
2018-09-19T00:09:00.306Z,17.56
2018-09-19T00:10:09.226Z,17.44
2018-09-19T00:11:17.871Z,17.44
2018-09-19T00:12:26.524Z,17.5
2018-09-19T00:13:35.167Z,17.47
2018-09-19T00:14:43.813Z,17.44
2018-09-19T00:15:53.001Z,17.5
2018-09-19T00:17:01.910Z,17.5
2018-09-19T00:18:11.107Z,17.44
2018-09-19T00:19:20.009Z,17.44
2018-09-19T00:20:28.657Z,17.38
2018-09-19T00:21:37.563Z,17.49
2018-09-19T00:22:46.215Z,17.47
2018-09-19T00:23:55.134Z,17.44
2018-09-19T00:25:04.049Z,17.44
2018-09-19T00:26:12.968Z,17.39
2018-09-19T00:27:22.146Z,17.49
2018-09-19T00:28:31.064Z,17.54
2018-09-19T00:29:39.977Z,17.52
2018-09-19T00:30:48.894Z,17.53
2018-09-19T00:31:57.538Z,17.56
2018-09-19T00:33:06.191Z,17.5
2018-09-19T00:34:15.106Z,17.53
2018-09-19T00:35:23.752Z,17.53
2018-09-19T00:36:32.665Z,17.53
2018-09-19T00:37:41.847Z,17.56
2018-09-19T00:38:50.488Z,17.56
2018-09-19T00:39:59.136Z,17.53
2018-09-19T00:41:08.049Z,17.52
2018-09-19T00:42:16.959Z,17.53
2018-09-19T00:43:25.866Z,17.49
2018-09-19T00:44:34.771Z,17.52
2018-09-19T00:45:43.695Z,17.52
2018-09-19T00:46:52.605Z,17.54
2018-09-19T00:48:01.526Z,17.53
2018-09-19T00:49:10.435Z,17.56
2018-09-19T00:50:19.081Z,17.52
2018-09-19T00:51:27.733Z,17.44
2018-09-19T00:52:36.902Z,17.44
2018-09-19T00:53:45.544Z,17.46
2018-09-19T00:54:54.194Z,17.44
2018-09-19T00:56:03.104Z,17.49
2018-09-19T00:57:11.751Z,17.56
2018-09-19T00:58:20.658Z,17.42
2018-09-19T00:59:29.309Z,17.52
2018-09-19T01:00:38.231Z,17.49
2018-09-19T01:01:46.884Z,17.53
2018-09-19T01:02:56.324Z,17.46
2018-09-19T01:04:05.510Z,17.56
2018-09-19T01:05:14.155Z,17.59
2018-09-19T01:06:23.328Z,17.47
2018-09-19T01:07:32.248Z,17.53
2018-09-19T01:08:41.169Z,17.5
2018-09-19T01:09:49.810Z,17.49
2018-09-19T01:10:58.459Z,17.59
2018-09-19T01:12:07.397Z,17.56
2018-09-19T01:13:16.586Z,17.46
2018-09-19T01:14:25.481Z,17.42
2018-09-19T01:15:34.124Z,17.39
2018-09-19T01:16:42.779Z,17.42
2018-09-19T01:17:51.688Z,17.5
2018-09-19T01:19:00.867Z,17.53
2018-09-19T01:20:09.509Z,17.52
2018-09-19T01:21:18.158Z,17.54
2018-09-19T01:22:26.813Z,17.5
2018-09-19T01:23:35.456Z,17.42
2018-09-19T01:24:44.369Z,17.5
2018-09-19T01:25:53.009Z,17.54
2018-09-19T01:27:01.676Z,17.5
2018-09-19T01:28:10.587Z,17.5
2018-09-19T01:29:19.236Z,17.44
2018-09-19T01:30:27.873Z,17.46
2018-09-19T01:31:36.526Z,17.46
2018-09-19T01:32:45.443Z,17.46
2018-09-19T01:33:54.370Z,17.46
2018-09-19T01:35:03.006Z,17.53
2018-09-19T01:36:11.921Z,17.47
2018-09-19T01:37:20.578Z,17.56
2018-09-19T01:38:29.753Z,17.42
2018-09-19T01:39:38.404Z,17.46
2018-09-19T01:40:47.046Z,17.42
2018-09-19T01:41:55.956Z,17.42
2018-09-19T01:43:04.593Z,17.42
2018-09-19T01:44:13.533Z,17.5
2018-09-19T01:45:22.425Z,17.42
2018-09-19T01:46:31.342Z,17.37
2018-09-19T01:47:39.985Z,17.46
2018-09-19T01:48:49.205Z,17.41
2018-09-19T01:49:57.812Z,17.38
2018-09-19T01:51:06.728Z,17.37
2018-09-19T01:52:15.375Z,17.42
2018-09-19T01:53:24.579Z,17.39
2018-09-19T01:54:33.487Z,17.38
2018-09-19T01:55:42.391Z,17.46
2018-09-19T01:56:51.838Z,17.42
2018-09-19T01:58:00.484Z,17.41
2018-09-19T01:59:09.141Z,17.41
2018-09-19T02:00:18.107Z,17.44
2018-09-19T02:01:27.301Z,17.37
2018-09-19T02:02:35.935Z,17.38
2018-09-19T02:03:44.590Z,17.38
2018-09-19T02:04:53.232Z,17.44
2018-09-19T02:06:02.153Z,17.47
2018-09-19T02:07:10.820Z,17.41
2018-09-19T02:08:19.980Z,17.44
2018-09-19T02:09:28.634Z,17.38
2018-09-19T02:10:37.281Z,17.38
2018-09-19T02:11:45.916Z,17.38
2018-09-19T02:12:54.848Z,17.37
2018-09-19T02:14:03.481Z,17.3
2018-09-19T02:15:12.130Z,17.31
2018-09-19T02:16:20.781Z,17.34
2018-09-19T02:17:29.419Z,17.2
2018-09-19T02:18:38.328Z,17.23
2018-09-19T02:19:47.785Z,17.32
2018-09-19T02:20:57.278Z,17.2
2018-09-19T02:22:06.402Z,17.31
2018-09-19T02:23:15.319Z,17.24
2018-09-19T02:24:23.965Z,17.27
2018-09-19T02:25:32.887Z,17.19
2018-09-19T02:26:42.604Z,17.2
2018-09-19T02:27:51.802Z,17.24
2018-09-19T02:29:00.446Z,17.19
2018-09-19T02:30:09.933Z,17.14
2018-09-19T02:31:19.383Z,17.14
2018-09-19T02:32:28.595Z,17.17
2018-09-19T02:33:37.503Z,17.12
2018-09-19T02:34:46.408Z,17.07
2018-09-19T02:35:55.332Z,17.04
2018-09-19T02:37:04.540Z,17.05
2018-09-19T02:38:13.461Z,17.05
2018-09-19T02:39:22.367Z,16.95
2018-09-19T02:40:31.546Z,16.97
2018-09-19T02:41:40.255Z,16.98
2018-09-19T02:42:48.842Z,16.82
2018-09-19T02:43:58.012Z,16.83
2018-09-19T02:45:06.940Z,16.84
2018-09-19T02:46:15.851Z,16.76
2018-09-19T02:47:24.503Z,16.69
2018-09-19T02:48:33.672Z,16.76
2018-09-19T02:49:42.597Z,16.76
2018-09-19T02:50:51.513Z,16.68
2018-09-19T02:52:00.180Z,16.58
2018-09-19T02:53:09.093Z,16.61
2018-09-19T02:54:18.262Z,16.59
2018-09-19T02:55:27.193Z,16.5
2018-09-19T02:56:36.370Z,16.54
2018-09-19T02:57:45.299Z,16.58
2018-09-19T02:58:54.228Z,16.49
2018-09-19T03:00:03.142Z,16.41
2018-09-19T03:01:11.791Z,16.46
2018-09-19T03:02:20.716Z,16.37
2018-09-19T03:03:29.879Z,16.44
2018-09-19T03:04:38.553Z,16.37
2018-09-19T03:05:47.452Z,16.32
2018-09-19T03:06:56.367Z,16.4
2018-09-19T03:08:05.277Z,16.36
2018-09-19T03:09:14.196Z,16.28
2018-09-19T03:10:22.840Z,16.32
2018-09-19T03:11:31.482Z,16.34
2018-09-19T03:12:40.665Z,16.34
2018-09-19T03:13:49.579Z,16.34
2018-09-19T03:14:59.331Z,16.24
2018-09-19T03:16:08.215Z,16.28
2018-09-19T03:17:17.258Z,16.28
2018-09-19T03:18:26.179Z,16.25
2018-09-19T03:19:35.108Z,16.26
2018-09-19T03:20:44.006Z,16.24
2018-09-19T03:21:52.926Z,16.18
2018-09-19T03:23:02.130Z,16.21
2018-09-19T03:24:11.310Z,16.21
2018-09-19T03:25:19.954Z,16.16
2018-09-19T03:26:29.130Z,16.17
2018-09-19T03:27:38.626Z,16.16
2018-09-19T03:28:47.279Z,16.13
2018-09-19T03:29:55.937Z,16.21
2018-09-19T03:31:04.845Z,16.13
2018-09-19T03:32:14.049Z,16.09
2018-09-19T03:33:22.956Z,16.06
2018-09-19T03:34:31.623Z,16.02
2018-09-19T03:35:40.543Z,16.06
2018-09-19T03:36:49.202Z,16.02
2018-09-19T03:37:58.111Z,16.08
2018-09-19T03:39:07.302Z,16.09
2018-09-19T03:40:16.207Z,15.99
2018-09-19T03:41:24.856Z,16
2018-09-19T03:42:33.505Z,16.05
2018-09-19T03:43:42.164Z,15.98
2018-09-19T03:44:51.349Z,16.02
2018-09-19T03:46:00.523Z,16.02
2018-09-19T03:47:09.480Z,15.96
2018-09-19T03:48:18.651Z,15.91
2018-09-19T03:49:27.578Z,15.91
2018-09-19T03:50:36.773Z,15.92
2018-09-19T03:51:45.961Z,15.98
2018-09-19T03:52:54.867Z,15.96
2018-09-19T03:54:04.330Z,15.9
2018-09-19T03:55:13.239Z,15.98
2018-09-19T03:56:21.887Z,15.96
2018-09-19T03:57:30.793Z,15.9
2018-09-19T03:58:40.259Z,15.94
2018-09-19T03:59:49.163Z,15.9
2018-09-19T04:00:57.812Z,15.96
2018-09-19T04:02:06.716Z,15.96
2018-09-19T04:03:15.628Z,16
2018-09-19T04:04:24.282Z,15.94
2018-09-19T04:05:33.191Z,15.98
2018-09-19T04:06:42.121Z,16
2018-09-19T04:07:51.022Z,15.98
2018-09-19T04:08:59.935Z,15.94
2018-09-19T04:10:08.859Z,15.96
2018-09-19T04:11:17.796Z,15.96
2018-09-19T04:12:26.707Z,15.99
2018-09-19T04:13:36.148Z,15.9
2018-09-19T04:14:45.063Z,15.91
2018-09-19T04:15:53.706Z,15.88
2018-09-19T04:17:02.622Z,15.88
2018-09-19T04:18:11.264Z,15.92
2018-09-19T04:19:20.186Z,15.9
2018-09-19T04:20:29.106Z,15.92
2018-09-19T04:21:37.752Z,15.84
2018-09-19T04:22:46.678Z,15.87
2018-09-19T04:23:55.591Z,15.85
2018-09-19T04:25:04.245Z,15.81
2018-09-19T04:26:13.423Z,15.75
2018-09-19T04:27:22.079Z,15.69
2018-09-19T04:28:30.733Z,15.76
2018-09-19T04:29:39.645Z,15.72
2018-09-19T04:30:48.298Z,15.65
2018-09-19T04:31:57.217Z,15.65
2018-09-19T04:33:06.400Z,15.63
2018-09-19T04:34:15.053Z,15.6
2018-09-19T04:35:23.691Z,15.59
2018-09-19T04:36:32.609Z,15.54
2018-09-19T04:37:41.540Z,15.51
2018-09-19T04:38:50.987Z,15.6
2018-09-19T04:39:59.898Z,15.52
2018-09-19T04:41:09.096Z,15.51
2018-09-19T04:42:18.282Z,15.55
2018-09-19T04:43:27.197Z,15.59
2018-09-19T04:44:36.120Z,15.57
2018-09-19T04:45:44.775Z,15.5
2018-09-19T04:46:53.697Z,15.52
2018-09-19T04:48:02.337Z,15.47
2018-09-19T04:49:11.536Z,15.59
2018-09-19T04:50:20.182Z,15.47
2018-09-19T04:51:28.901Z,15.5
2018-09-19T04:52:38.585Z,15.52
2018-09-19T04:53:47.244Z,15.47
2018-09-19T04:54:55.905Z,15.51
2018-09-19T04:56:04.798Z,15.41
2018-09-19T04:57:13.450Z,15.44
2018-09-19T04:58:22.645Z,15.41
2018-09-19T04:59:31.569Z,15.45
2018-09-19T05:00:40.218Z,15.39
2018-09-19T05:01:49.402Z,15.45
2018-09-19T05:02:58.831Z,15.43
2018-09-19T05:04:07.484Z,15.41
2018-09-19T05:05:16.122Z,15.36
2018-09-19T05:06:24.776Z,15.36
2018-09-19T05:07:33.677Z,15.36
2018-09-19T05:08:42.601Z,15.39
2018-09-19T05:09:51.501Z,15.41
2018-09-19T05:11:00.434Z,15.41
2018-09-19T05:12:10.144Z,15.43
2018-09-19T05:13:19.632Z,15.41
2018-09-19T05:14:28.275Z,15.39
2018-09-19T05:15:37.193Z,15.45
2018-09-19T05:16:46.107Z,15.48
2018-09-19T05:17:55.023Z,15.39
2018-09-19T05:19:03.665Z,15.41
2018-09-19T05:20:12.572Z,15.52
2018-09-19T05:21:21.480Z,15.5
2018-09-19T05:22:30.129Z,15.52
2018-09-19T05:23:38.779Z,15.54
2018-09-19T05:24:47.427Z,15.52
2018-09-19T05:25:56.075Z,15.5
2018-09-19T05:27:04.719Z,15.55
2018-09-19T05:28:13.374Z,15.55
2018-09-19T05:29:22.589Z,15.57
2018-09-19T05:30:31.241Z,15.51
2018-09-19T05:31:40.231Z,15.57
2018-09-19T05:32:49.205Z,15.41
2018-09-19T05:33:57.845Z,15.45
2018-09-19T05:35:06.766Z,15.47
2018-09-19T05:36:16.214Z,15.45
2018-09-19T05:37:24.861Z,15.37
2018-09-19T05:38:33.781Z,15.45
2018-09-19T05:39:42.479Z,15.37
2018-09-19T05:40:51.330Z,15.37
2018-09-19T05:42:00.236Z,15.37
2018-09-19T05:43:09.164Z,15.43
2018-09-19T05:44:18.069Z,15.39
2018-09-19T05:45:26.713Z,15.37
2018-09-19T05:46:35.418Z,15.45
2018-09-19T05:47:44.006Z,15.41
2018-09-19T05:48:52.944Z,15.36
2018-09-19T05:50:01.857Z,15.39
2018-09-19T05:51:10.500Z,15.44
2018-09-19T05:52:19.150Z,15.44
2018-09-19T05:53:27.791Z,15.45
2018-09-19T05:54:36.854Z,15.5
2018-09-19T05:55:45.834Z,15.57
2018-09-19T05:56:54.477Z,15.45
2018-09-19T05:58:03.137Z,15.57
2018-09-19T05:59:12.304Z,15.54
2018-09-19T06:00:20.947Z,15.52
2018-09-19T06:01:29.851Z,15.6
2018-09-19T06:02:38.507Z,15.66
2018-09-19T06:03:47.162Z,15.66
2018-09-19T06:04:55.840Z,15.72
2018-09-19T06:06:05.095Z,15.67
2018-09-19T06:07:13.743Z,15.72
2018-09-19T06:08:22.649Z,15.8
2018-09-19T06:09:31.293Z,15.9
2018-09-19T06:10:39.947Z,15.85
2018-09-19T06:11:48.593Z,15.91
2018-09-19T06:12:57.337Z,15.96
2018-09-19T06:14:06.329Z,16.02
2018-09-19T06:15:14.974Z,16.05
2018-09-19T06:16:23.897Z,16.08
2018-09-19T06:17:32.800Z,16.21
2018-09-19T06:18:41.448Z,16.13
2018-09-19T06:19:50.087Z,16.22
2018-09-19T06:20:59.013Z,16.25
2018-09-19T06:22:07.659Z,16.29
2018-09-19T06:23:16.582Z,16.32
2018-09-19T06:24:25.221Z,16.31
2018-09-19T06:25:34.144Z,16.39
2018-09-19T06:26:43.319Z,16.47
2018-09-19T06:27:52.235Z,16.43
2018-09-19T06:29:00.868Z,16.51
2018-09-19T06:30:09.521Z,16.58
2018-09-19T06:31:18.170Z,16.66
2018-09-19T06:32:27.089Z,16.69
2018-09-19T06:33:36.076Z,16.72
2018-09-19T06:34:44.911Z,16.74
2018-09-19T06:35:54.089Z,16.76
2018-09-19T06:37:02.805Z,16.82
2018-09-19T06:38:11.399Z,16.98
2018-09-19T06:39:20.840Z,16.95
2018-09-19T06:40:29.609Z,17.04
2018-09-19T06:41:38.443Z,17.1
2018-09-19T06:42:47.362Z,17.14
2018-09-19T06:43:56.259Z,17.24
2018-09-19T06:45:04.907Z,17.22
2018-09-19T06:46:13.558Z,17.3
2018-09-19T06:47:22.219Z,17.35
2018-09-19T06:48:30.864Z,17.39
2018-09-19T06:49:40.070Z,17.47
2018-09-19T06:50:48.674Z,17.53
2018-09-19T06:51:57.642Z,17.57
2018-09-19T06:53:06.238Z,17.65
2018-09-19T06:54:15.148Z,17.66
2018-09-19T06:55:23.797Z,17.73
2018-09-19T06:56:32.438Z,17.78
2018-09-19T06:57:41.108Z,17.75
2018-09-19T06:58:50.872Z,17.97
2018-09-19T06:59:59.526Z,17.98
2018-09-19T07:01:08.822Z,18.03
2018-09-19T07:02:17.537Z,18.02
2018-09-19T07:03:26.277Z,18.12
2018-09-19T07:04:35.342Z,18.08
2018-09-19T07:05:44.791Z,18.16
2018-09-19T07:06:53.479Z,18.21
2018-09-19T07:08:02.788Z,18.24
2018-09-19T07:09:11.440Z,18.28
2018-09-19T07:10:20.085Z,18.27
2018-09-19T07:11:28.724Z,18.36
2018-09-19T07:12:37.635Z,18.43
2018-09-19T07:13:46.549Z,18.42
2018-09-19T07:14:55.204Z,18.49
2018-09-19T07:16:03.849Z,18.52
2018-09-19T07:17:12.502Z,18.49
2018-09-19T07:18:21.149Z,18.53
2018-09-19T07:19:29.803Z,18.6
2018-09-19T07:20:38.709Z,18.63
2018-09-19T07:21:47.357Z,18.68
2018-09-19T07:22:56.001Z,18.73
2018-09-19T07:24:05.186Z,18.78
2018-09-19T07:25:14.267Z,18.88
2018-09-19T07:26:23.243Z,18.85
2018-09-19T07:27:32.147Z,18.86
2018-09-19T07:28:41.054Z,18.86
2018-09-19T07:29:49.708Z,18.91
2018-09-19T07:30:58.981Z,18.98
2018-09-19T07:32:07.945Z,19
2018-09-19T07:33:16.851Z,19.01
2018-09-19T07:34:25.773Z,19.04
2018-09-19T07:35:34.433Z,19.09
2018-09-19T07:36:43.353Z,19.2
2018-09-19T07:37:52.264Z,19.2
2018-09-19T07:39:00.913Z,19.27
2018-09-19T07:40:09.847Z,19.27
2018-09-19T07:41:18.766Z,19.23
2018-09-19T07:42:27.399Z,19.32
2018-09-19T07:43:36.320Z,19.42
2018-09-19T07:44:44.978Z,19.41
2018-09-19T07:45:53.892Z,19.35
2018-09-19T07:47:02.808Z,19.48
2018-09-19T07:48:11.978Z,19.44
2018-09-19T07:49:20.627Z,19.62
2018-09-19T07:50:29.290Z,19.7
2018-09-19T07:51:37.935Z,19.72
2018-09-19T07:52:47.111Z,19.75
2018-09-19T07:53:56.025Z,19.79
2018-09-19T07:55:04.675Z,19.79
2018-09-19T07:56:13.932Z,19.84
2018-09-19T07:57:22.846Z,19.92
2018-09-19T07:58:31.762Z,19.97
2018-09-19T07:59:40.676Z,20.02
2018-09-19T08:00:49.907Z,20.03
2018-09-19T08:01:58.387Z,20.04
2018-09-19T08:03:07.040Z,20.12
2018-09-19T08:04:15.949Z,20.19
2018-09-19T08:05:24.598Z,20.19
2018-09-19T08:06:33.251Z,20.27
2018-09-19T08:07:42.425Z,20.3
2018-09-19T08:08:51.118Z,20.33
2018-09-19T08:09:59.733Z,20.44
2018-09-19T08:11:08.903Z,20.52
2018-09-19T08:12:17.818Z,20.53
2018-09-19T08:13:26.732Z,20.56
2018-09-19T08:14:35.656Z,20.59
2018-09-19T08:15:44.826Z,20.59
2018-09-19T08:16:53.985Z,20.59
2018-09-19T08:18:02.545Z,20.73
2018-09-19T08:19:11.200Z,20.78
2018-09-19T08:20:20.122Z,20.85
2018-09-19T08:21:28.782Z,20.89
2018-09-19T08:22:38.097Z,20.93
2018-09-19T08:23:47.600Z,21.01
2018-09-19T08:24:56.252Z,21.03
2018-09-19T08:26:05.173Z,21.14
2018-09-19T08:27:14.132Z,21.14
2018-09-19T08:28:22.785Z,21.19
2018-09-19T08:29:31.697Z,21.22
2018-09-19T08:30:40.884Z,21.29
2018-09-19T08:31:50.097Z,21.26
2018-09-19T08:32:58.753Z,21.23
2018-09-19T08:34:07.400Z,21.41
2018-09-19T08:35:16.048Z,21.45
2018-09-19T08:36:24.983Z,21.5
2018-09-19T08:37:33.887Z,21.5
2018-09-19T08:38:42.543Z,21.43
2018-09-19T08:39:51.462Z,21.51
2018-09-19T08:41:00.113Z,21.56
2018-09-19T08:42:09.030Z,21.65
2018-09-19T08:43:18.216Z,21.72
2018-09-19T08:44:26.863Z,21.75
2018-09-19T08:45:35.791Z,21.88
2018-09-19T08:46:44.440Z,21.94
2018-09-19T08:47:53.089Z,21.97
2018-09-19T08:49:01.736Z,21.92
2018-09-19T08:50:10.391Z,21.97
2018-09-19T08:51:19.049Z,22.04
2018-09-19T08:52:27.962Z,22.08
2018-09-19T08:53:36.612Z,22.18
2018-09-19T08:54:45.266Z,22.12
2018-09-19T08:55:54.457Z,22.19
2018-09-19T08:57:03.511Z,22.18
2018-09-19T08:58:12.388Z,22.31
2018-09-19T08:59:21.048Z,22.31
2018-09-19T09:00:29.681Z,22.46
2018-09-19T09:01:38.867Z,22.52
2018-09-19T09:02:47.774Z,22.59
2018-09-19T09:03:56.686Z,22.63
2018-09-19T09:05:05.597Z,22.61
2018-09-19T09:06:14.580Z,22.71
2018-09-19T09:07:23.224Z,22.74
2018-09-19T09:08:32.153Z,22.76
2018-09-19T09:09:41.584Z,22.83
2018-09-19T09:10:50.248Z,22.89
2018-09-19T09:11:59.181Z,23.07
2018-09-19T09:13:07.815Z,23.06
2018-09-19T09:14:16.456Z,23.07
2018-09-19T09:15:25.377Z,23.13
2018-09-19T09:16:34.030Z,23.17
2018-09-19T09:17:42.941Z,23.16
2018-09-19T09:18:51.601Z,23.25
2018-09-19T09:20:00.965Z,23.26
2018-09-19T09:21:09.804Z,23.29
2018-09-19T09:22:18.453Z,23.29
2018-09-19T09:23:27.112Z,23.32
2018-09-19T09:24:35.757Z,23.47
2018-09-19T09:25:44.676Z,23.55
2018-09-19T09:26:54.685Z,23.58
2018-09-19T09:28:03.687Z,23.44
2018-09-19T09:29:12.331Z,23.56
2018-09-19T09:30:21.848Z,23.67
2018-09-19T09:31:30.762Z,23.66
2018-09-19T09:32:39.686Z,23.7
2018-09-19T09:33:48.597Z,23.64
2018-09-19T09:34:57.253Z,23.74
2018-09-19T09:36:06.169Z,23.84
2018-09-19T09:37:14.847Z,23.82
2018-09-19T09:38:23.778Z,23.86
2018-09-19T09:39:32.954Z,23.84
2018-09-19T09:40:41.608Z,23.96
2018-09-19T09:41:50.517Z,23.96
2018-09-19T09:42:59.438Z,23.94
2018-09-19T09:44:08.110Z,23.94
2018-09-19T09:45:16.739Z,23.91
2018-09-19T09:46:25.383Z,24.03
2018-09-19T09:47:34.043Z,24.09
2018-09-19T09:48:42.696Z,24.06
2018-09-19T09:49:51.358Z,24.1
2018-09-19T09:51:00.268Z,24.11
2018-09-19T09:52:09.196Z,24.21
2018-09-19T09:53:18.154Z,24.21
2018-09-19T09:54:26.766Z,24.21
2018-09-19T09:55:35.423Z,24.25
2018-09-19T09:56:44.065Z,24.37
2018-09-19T09:57:52.727Z,24.41
2018-09-19T09:59:01.641Z,24.5
2018-09-19T10:00:10.299Z,24.5
2018-09-19T10:01:18.940Z,24.59
2018-09-19T10:02:27.888Z,24.68
2018-09-19T10:03:37.058Z,24.65
2018-09-19T10:04:45.715Z,24.63
2018-09-19T10:05:54.360Z,24.65
2018-09-19T10:07:03.315Z,24.74
2018-09-19T10:08:11.983Z,24.82
2018-09-19T10:09:20.884Z,24.86
2018-09-19T10:10:29.532Z,24.88
2018-09-19T10:11:38.181Z,24.94
2018-09-19T10:12:46.840Z,25.01
2018-09-19T10:13:55.765Z,25.09
2018-09-19T10:15:05.006Z,25.04
2018-09-19T10:16:13.929Z,25.14
2018-09-19T10:17:22.581Z,25.07
2018-09-19T10:18:31.418Z,25.12
2018-09-19T10:19:40.170Z,25.19
2018-09-19T10:20:48.846Z,25.31
2018-09-19T10:21:57.494Z,25.43
2018-09-19T10:23:06.143Z,25.49
2018-09-19T10:24:15.063Z,25.56
2018-09-19T10:25:23.975Z,25.62
2018-09-19T10:26:32.630Z,25.78
2018-09-19T10:27:41.276Z,25.8
2018-09-19T10:28:49.934Z,25.8
2018-09-19T10:29:58.855Z,25.83
2018-09-19T10:31:07.774Z,25.81
2018-09-19T10:32:16.433Z,25.89
2018-09-19T10:33:25.341Z,25.99
2018-09-19T10:34:34.259Z,26.1
2018-09-19T10:35:42.910Z,26.19
2018-09-19T10:36:51.839Z,26.29
2018-09-19T10:38:00.489Z,26.33
2018-09-19T10:39:09.404Z,26.33
2018-09-19T10:40:18.318Z,26.42
2018-09-19T10:41:26.976Z,26.49
2018-09-19T10:42:35.882Z,26.56
2018-09-19T10:43:44.572Z,26.56
2018-09-19T10:44:53.185Z,26.71
2018-09-19T10:46:02.113Z,26.56
2018-09-19T10:47:10.760Z,26.53
2018-09-19T10:48:19.671Z,26.42
2018-09-19T10:49:28.379Z,26.37
2018-09-19T10:50:37.351Z,26.33
2018-09-19T10:51:46.007Z,26.13
2018-09-19T10:52:54.665Z,26.08
2018-09-19T10:54:03.315Z,26.03
2018-09-19T10:55:11.991Z,25.95
2018-09-19T10:56:20.886Z,25.96
2018-09-19T10:57:29.805Z,25.93
2018-09-19T10:58:38.458Z,25.93
2018-09-19T10:59:47.107Z,25.86
2018-09-19T11:00:56.289Z,25.95
2018-09-19T11:02:05.470Z,25.99
2018-09-19T11:03:14.128Z,25.96
2018-09-19T11:04:22.770Z,25.95
2018-09-19T11:05:31.435Z,25.92
2018-09-19T11:06:40.397Z,25.99
2018-09-19T11:07:49.052Z,26.1
2018-09-19T11:08:58.104Z,26.19
2018-09-19T11:10:06.767Z,26.33
2018-09-19T11:11:15.438Z,26.34
2018-09-19T11:12:24.631Z,26.42
2018-09-19T11:13:33.837Z,26.55
2018-09-19T11:14:42.579Z,26.55
2018-09-19T11:15:52.315Z,26.56
2018-09-19T11:17:01.409Z,26.56
2018-09-19T11:18:10.356Z,26.59
2018-09-19T11:19:19.093Z,26.41
2018-09-19T11:20:27.788Z,26.45
2018-09-19T11:21:36.508Z,26.45
2018-09-19T11:22:45.442Z,26.49
2018-09-19T11:23:54.542Z,26.63
2018-09-19T11:25:04.200Z,26.67
2018-09-19T11:26:13.199Z,26.64
2018-09-19T11:27:22.390Z,26.64
2018-09-19T11:28:31.359Z,26.66
2018-09-19T11:29:40.092Z,26.67
2018-09-19T11:30:48.749Z,26.78
2018-09-19T11:31:57.392Z,26.68
2018-09-19T11:33:06.316Z,26.6
2018-09-19T11:34:14.999Z,26.61
2018-09-19T11:35:23.655Z,26.42
2018-09-19T11:36:32.562Z,26.41
2018-09-19T11:37:41.223Z,26.3
2018-09-19T11:38:50.137Z,26.42
2018-09-19T11:39:58.790Z,26.42
2018-09-19T11:41:07.695Z,26.36
2018-09-19T11:42:16.614Z,26.26
2018-09-19T11:43:25.608Z,26.26
2018-09-19T11:44:34.200Z,26.23
2018-09-19T11:45:42.856Z,26.19
2018-09-19T11:46:51.499Z,26.19
2018-09-19T11:48:00.159Z,26.11
2018-09-19T11:49:09.065Z,26.18
2018-09-19T11:50:17.725Z,26.18
2018-09-19T11:51:26.629Z,26.26
2018-09-19T11:52:35.285Z,26.3
2018-09-19T11:53:43.948Z,26.33
2018-09-19T11:54:52.612Z,26.33
2018-09-19T11:56:01.260Z,26.3
2018-09-19T11:57:09.918Z,26.33
2018-09-19T11:58:18.593Z,26.27
2018-09-19T11:59:27.257Z,26.27
2018-09-19T12:00:35.908Z,26.24
2018-09-19T12:01:44.815Z,26.27
2018-09-19T12:02:53.471Z,26.27
2018-09-19T12:04:02.389Z,26.22
2018-09-19T12:05:11.030Z,26.19
2018-09-19T12:06:19.688Z,26.24
2018-09-19T12:07:28.382Z,26.31
2018-09-19T12:08:36.998Z,26.41
2018-09-19T12:09:45.639Z,26.41
2018-09-19T12:10:54.295Z,26.44
2018-09-19T12:12:02.943Z,26.56
2018-09-19T12:13:11.602Z,26.68
2018-09-19T12:14:20.260Z,26.76
2018-09-19T12:15:29.178Z,26.79
2018-09-19T12:16:38.364Z,26.86
2018-09-19T12:17:47.025Z,26.82
2018-09-19T12:18:55.674Z,26.97
2018-09-19T12:20:04.322Z,26.92
2018-09-19T12:21:12.972Z,26.96
2018-09-19T12:22:21.640Z,27
2018-09-19T12:23:30.304Z,27.1
2018-09-19T12:24:38.949Z,26.92
2018-09-19T12:25:47.606Z,26.91
2018-09-19T12:26:56.515Z,26.89
2018-09-19T12:28:05.172Z,26.78
2018-09-19T12:29:13.823Z,26.82
2018-09-19T12:30:22.481Z,26.78
2018-09-19T12:31:31.124Z,26.83
2018-09-19T12:32:39.785Z,26.85
2018-09-19T12:33:48.435Z,26.88
2018-09-19T12:34:57.093Z,26.93
2018-09-19T12:36:06.019Z,26.96
2018-09-19T12:37:14.671Z,27.07
2018-09-19T12:38:23.330Z,27.15
2018-09-19T12:39:32.040Z,27.25
2018-09-19T12:40:40.643Z,27.22
2018-09-19T12:41:49.552Z,27.26
2018-09-19T12:42:58.210Z,27.26
2018-09-19T12:44:06.862Z,27.25
2018-09-19T12:45:15.521Z,27.25
2018-09-19T12:46:24.165Z,27.35
2018-09-19T12:47:32.822Z,27.38
2018-09-19T12:48:41.726Z,27.47
2018-09-19T12:49:50.389Z,27.64
2018-09-19T12:50:59.036Z,27.66
2018-09-19T12:52:07.692Z,27.68
2018-09-19T12:53:16.403Z,27.67
2018-09-19T12:54:25.007Z,27.66
2018-09-19T12:55:33.657Z,27.73
2018-09-19T12:56:42.307Z,27.78
2018-09-19T12:57:51.221Z,27.85
2018-09-19T12:58:59.874Z,27.82
2018-09-19T13:00:08.535Z,27.85
2018-09-19T13:01:17.198Z,27.79
2018-09-19T13:02:26.717Z,27.83
2018-09-19T13:03:35.368Z,27.81
2018-09-19T13:04:44.024Z,27.78
2018-09-19T13:05:52.726Z,27.9
2018-09-19T13:07:01.330Z,27.81
2018-09-19T13:08:09.979Z,27.64
2018-09-19T13:09:18.636Z,27.6
2018-09-19T13:10:27.288Z,27.52
2018-09-19T13:11:35.943Z,27.43
2018-09-19T13:12:44.592Z,27.35
2018-09-19T13:13:53.515Z,27.22
2018-09-19T13:15:02.170Z,27.18
2018-09-19T13:16:10.821Z,27.03
2018-09-19T13:17:19.474Z,27.03
2018-09-19T13:18:28.387Z,27.08
2018-09-19T13:19:37.039Z,27.01
2018-09-19T13:20:45.697Z,26.98
2018-09-19T13:21:54.353Z,26.98
2018-09-19T13:23:03.260Z,26.96
2018-09-19T13:24:12.170Z,26.97
2018-09-19T13:25:21.344Z,27.04
2018-09-19T13:26:30.001Z,27.03
2018-09-19T13:27:38.650Z,27.15
2018-09-19T13:28:47.306Z,27.23
2018-09-19T13:29:55.953Z,27.23
2018-09-19T13:31:04.610Z,27.2
2018-09-19T13:32:13.530Z,27.18
2018-09-19T13:33:22.441Z,27.16
2018-09-19T13:34:31.090Z,27.11
2018-09-19T13:35:39.740Z,27.04
2018-09-19T13:36:48.397Z,27.04
2018-09-19T13:37:57.313Z,26.96
2018-09-19T13:39:05.965Z,26.93
2018-09-19T13:40:14.613Z,27.03
2018-09-19T13:41:23.273Z,26.97
2018-09-19T13:42:31.926Z,27.07
2018-09-19T13:43:40.579Z,27.07
2018-09-19T13:44:49.226Z,27.1
2018-09-19T13:45:57.887Z,27.23
2018-09-19T13:47:06.532Z,27.22
2018-09-19T13:48:15.188Z,27.26
2018-09-19T13:49:23.837Z,27.19
2018-09-19T13:50:32.492Z,27.19
2018-09-19T13:51:41.144Z,27.28
2018-09-19T13:52:50.067Z,27.3
2018-09-19T13:53:58.724Z,27.29
2018-09-19T13:55:07.900Z,27.4
2018-09-19T13:56:16.552Z,27.34
2018-09-19T13:57:25.204Z,27.35
2018-09-19T13:58:33.864Z,27.34
2018-09-19T13:59:42.514Z,27.43
2018-09-19T14:00:51.161Z,27.34
2018-09-19T14:01:59.818Z,27.37
2018-09-19T14:03:08.465Z,27.4
2018-09-19T14:04:17.470Z,27.4
2018-09-19T14:05:26.405Z,27.23
2018-09-19T14:06:35.062Z,27.26
2018-09-19T14:07:43.702Z,27.33
2018-09-19T14:08:52.355Z,27.28
2018-09-19T14:10:01.013Z,27.25
2018-09-19T14:11:09.666Z,27.28
2018-09-19T14:12:18.362Z,27.3
2018-09-19T14:13:26.964Z,27.2
2018-09-19T14:14:35.620Z,27.18
2018-09-19T14:15:44.270Z,27.16
2018-09-19T14:16:53.196Z,27.23
2018-09-19T14:18:01.838Z,27.18
2018-09-19T14:19:10.762Z,27.18
2018-09-19T14:20:19.411Z,27.26
2018-09-19T14:21:28.075Z,27.25
2018-09-19T14:22:36.718Z,27.22
2018-09-19T14:23:45.374Z,27.28
2018-09-19T14:24:54.022Z,27.2
2018-09-19T14:26:02.946Z,27.22
2018-09-19T14:27:12.123Z,27.19
2018-09-19T14:28:21.061Z,27.28
2018-09-19T14:29:30.075Z,27.19
2018-09-19T14:30:38.995Z,27.23
2018-09-19T14:31:47.652Z,27.18
2018-09-19T14:32:56.302Z,27.18
2018-09-19T14:34:04.960Z,27.18
2018-09-19T14:35:13.603Z,27.16
2018-09-19T14:36:22.532Z,27.15
2018-09-19T14:37:31.182Z,27.22
2018-09-19T14:38:39.840Z,27.23
2018-09-19T14:39:48.484Z,27.16
2018-09-19T14:40:57.416Z,27.3
2018-09-19T14:42:06.596Z,27.25
2018-09-19T14:43:15.245Z,27.29
2018-09-19T14:44:23.891Z,27.18
2018-09-19T14:45:32.810Z,27.16
2018-09-19T14:46:41.469Z,27.07
2018-09-19T14:47:50.389Z,27.03
2018-09-19T14:48:59.104Z,27.11
2018-09-19T14:50:07.686Z,27.11